SBOSBO ATH / LGAV
Speedbird OnlineSpeedbird Online ATH / LGAV

Eleftherios Venizelos International Airport
15:35 9.6°C

Location Athens, Greece
Latitude: 37.9364013672
Longitude: 23.9444999695
Web Airport Website | Wikipedia
Altitude 94 Meter / 308 Feet
Distance 2,393 KM / 1,487 Miles
from London.
Time Zone UTC +2 hours (Europe/Athens)
Codes IATA: ATH
ICAO: LGAV
Currency £1 equals EUR 1.14
Runways
RunwayLength (m)Surface
03L3800Asphalt
03R4000Asphalt
21L4000Asphalt
21R3800Asphalt
Radio
TypeDescriptionFrequency
APPATHINAI APP126.575
ARRATHINAI ARR132.975
ATISATIS136.125
CLDCLNC DEL118.675
DEPATHINAI DEP128.95
DIRATHINAI DIR121.4
GNDGND121.75
INFOINFO136.025
PMSVATHINAI VOLMET127.8
RDORDO563.7
TWRTWR136.275
Live ATC
METAR LGAV 311320Z 02012KT 9999 SCT025 SCT060 10/02 Q1012 NOSIG
TAF TAF LGAV 311100Z 3112/0112 36013KT 9999 FEW020 SCT025 BKN070 TEMPO 3118/0103 36012G22KT PROB30 TEMPO 3112/3118 5000 RA FEW018TCU BKN025 BKN070
Weather As Of 31 Jan 2023 15:35
Description Scattered clouds
Wind 22 km/h from North (20°)
Cloud Cover 40%
Precipitation Rain: none, Snow: none
Sunrise 07:29
Sunset 17:45
Lounges Goldair CIP Lounge, A
Skyserv Business Lounge, International
Skyserv Melina Merkouri Lounge , Main Terminal
Swissport Executive Lounge, Main Terminal Building
Rotations During the last 90 days there were
228 flights from LHR
1 flights from BCN
227 flights to LHR
1 flights to FRA



Support Speedbird Online

© 2017-2023 Speedbird Online